DAL143 PAJN-KSLC
Flight info
| Callsign | DAL143 |
|---|---|
| Flight time | 3h 1m |
| Altitude | 37000 |
| Route | JNU7 SSR Q902 ROSLN YKM JELTI Q154 BYI SKEES6 |
| Aircraft | A20N/M-VGDW/C |
Departure
| Time | 2026-04-24 03:14 |
|---|---|
| Airport | Juneau International Airport (PAJN) |
Arrival
| Time | 2026-04-24 06:15 |
|---|---|
| Airport | Salt Lake City International Airport (KSLC) |
| Time | Latitude | Longitude | Altitude | Speed | Heading |
|---|---|---|---|---|---|
| 2026-04-24 02:38 | 58.35831 | -134.58371 | -4 ft | 0 kts | 18° |
| 2026-04-24 03:04 | 58.35831 | -134.58372 | -5 ft | 0 kts | 18° |
| 2026-04-24 03:05 | 58.35818 | -134.58380 | -5 ft | 2 kts | 18° |
| 2026-04-24 03:05 | 58.35804 | -134.58389 | -5 ft | 2 kts | 18° |
| 2026-04-24 03:05 | 58.35795 | -134.58395 | -6 ft | 1 kts | 15° |
| 2026-04-24 03:05 | 58.35783 | -134.58389 | -6 ft | 2 kts | 313° |
| 2026-04-24 03:06 | 58.35778 | -134.58377 | -6 ft | 0 kts | 282° |
| 2026-04-24 03:06 | 58.35777 | -134.58365 | -6 ft | 0 kts | 287° |
| 2026-04-24 03:10 | 58.35784 | -134.58409 | -6 ft | 11 kts | 287° |
| 2026-04-24 03:11 | 58.35773 | -134.58621 | -7 ft | 18 kts | 237° |
| 2026-04-24 03:11 | 58.35773 | -134.58846 | -7 ft | 17 kts | 284° |
| 2026-04-24 03:11 | 58.35803 | -134.59067 | -6 ft | 17 kts | 284° |
| 2026-04-24 03:11 | 58.35833 | -134.59288 | -6 ft | 17 kts | 284° |
| 2026-04-24 03:12 | 58.35858 | -134.59438 | -6 ft | 7 kts | 288° |
| 2026-04-24 03:12 | 58.35871 | -134.59540 | -7 ft | 9 kts | 272° |
| 2026-04-24 03:12 | 58.35829 | -134.59654 | -9 ft | 12 kts | 201° |
| 2026-04-24 03:12 | 58.35772 | -134.59599 | -6 ft | 9 kts | 107° |
| 2026-04-24 03:13 | 58.35747 | -134.59453 | -6 ft | 16 kts | 106° |
| 2026-04-24 03:13 | 58.35674 | -134.58933 | -6 ft | 76 kts | 104° |
| 2026-04-24 03:13 | 58.35479 | -134.57521 | -7 ft | 141 kts | 104° |
| 2026-04-24 03:13 | 58.35191 | -134.55516 | 278 ft | 166 kts | 106° |
| 2026-04-24 03:14 | 58.34520 | -134.53978 | 1124 ft | 152 kts | 166° |
| 2026-04-24 03:14 | 58.33566 | -134.54349 | 1709 ft | 155 kts | 226° |
| 2026-04-24 03:14 | 58.33043 | -134.56308 | 2042 ft | 178 kts | 264° |
| 2026-04-24 03:14 | 58.33184 | -134.58578 | 2802 ft | 177 kts | 288° |
| 2026-04-24 03:15 | 58.33625 | -134.60741 | 3509 ft | 183 kts | 293° |
| 2026-04-24 03:15 | 58.34181 | -134.63025 | 4066 ft | 200 kts | 294° |
| 2026-04-24 03:15 | 58.34806 | -134.65506 | 4616 ft | 219 kts | 294° |
| 2026-04-24 03:15 | 58.35464 | -134.68198 | 5321 ft | 233 kts | 289° |
| 2026-04-24 03:16 | 58.35863 | -134.71103 | 6386 ft | 233 kts | 278° |
| 2026-04-24 03:16 | 58.35963 | -134.74214 | 7214 ft | 245 kts | 272° |
| 2026-04-24 03:16 | 58.35985 | -134.77501 | 8141 ft | 254 kts | 272° |
| 2026-04-24 03:16 | 58.35999 | -134.80830 | 9089 ft | 254 kts | 272° |
| 2026-04-24 03:17 | 58.36015 | -134.84199 | 9810 ft | 260 kts | 272° |
| 2026-04-24 03:17 | 58.35853 | -134.87639 | 10386 ft | 272 kts | 257° |
| 2026-04-24 03:17 | 58.35006 | -134.91002 | 10880 ft | 293 kts | 237° |
| 2026-04-24 03:17 | 58.33632 | -134.93932 | 11430 ft | 305 kts | 231° |
| 2026-04-24 03:18 | 58.32177 | -134.96849 | 12137 ft | 309 kts | 231° |
| 2026-04-24 03:18 | 58.30693 | -134.99828 | 12842 ft | 314 kts | 231° |
| 2026-04-24 03:18 | 58.29198 | -135.02846 | 13735 ft | 320 kts | 231° |
| 2026-04-24 03:18 | 58.27684 | -135.05904 | 14737 ft | 323 kts | 231° |
| 2026-04-24 03:19 | 58.26144 | -135.09013 | 15657 ft | 326 kts | 231° |
| 2026-04-24 03:19 | 58.24589 | -135.12152 | 16532 ft | 330 kts | 231° |
| 2026-04-24 03:19 | 58.23033 | -135.15288 | 17424 ft | 334 kts | 231° |
| 2026-04-24 03:19 | 58.21446 | -135.18472 | 18262 ft | 337 kts | 229° |
| 2026-04-24 03:20 | 58.19534 | -135.21112 | 18980 ft | 352 kts | 207° |
| 2026-04-24 03:20 | 58.17139 | -135.22171 | 19681 ft | 365 kts | 184° |
| 2026-04-24 03:20 | 58.14614 | -135.21385 | 20388 ft | 378 kts | 161° |
| 2026-04-24 03:20 | 58.12355 | -135.18877 | 21103 ft | 384 kts | 146° |
| 2026-04-24 03:21 | 58.10204 | -135.15892 | 21783 ft | 388 kts | 145° |
| 2026-04-24 03:21 | 58.08002 | -135.12862 | 22404 ft | 393 kts | 146° |
| 2026-04-24 03:21 | 58.05786 | -135.09848 | 23011 ft | 396 kts | 146° |
| 2026-04-24 03:21 | 58.03569 | -135.06863 | 23590 ft | 400 kts | 145° |
| 2026-04-24 03:22 | 58.01282 | -135.03798 | 24158 ft | 404 kts | 146° |
| 2026-04-24 03:22 | 57.98991 | -135.00737 | 24660 ft | 408 kts | 146° |
| 2026-04-24 03:22 | 57.96687 | -134.97672 | 25166 ft | 412 kts | 146° |
| 2026-04-24 03:22 | 57.94371 | -134.94594 | 25847 ft | 410 kts | 146° |
| 2026-04-24 03:23 | 57.92044 | -134.91511 | 26539 ft | 408 kts | 146° |
| 2026-04-24 03:23 | 57.89732 | -134.88454 | 27039 ft | 410 kts | 146° |
| 2026-04-24 03:23 | 57.87395 | -134.85368 | 27466 ft | 414 kts | 146° |
| 2026-04-24 03:23 | 57.85041 | -134.82268 | 27894 ft | 417 kts | 146° |
| 2026-04-24 03:24 | 57.82666 | -134.79143 | 28333 ft | 420 kts | 146° |
| 2026-04-24 03:24 | 57.80272 | -134.75998 | 28714 ft | 423 kts | 146° |
| 2026-04-24 03:24 | 57.77857 | -134.72832 | 29087 ft | 426 kts | 146° |
| 2026-04-24 03:24 | 57.75447 | -134.69678 | 29458 ft | 429 kts | 146° |
| 2026-04-24 03:25 | 57.73000 | -134.66475 | 29810 ft | 432 kts | 146° |
| 2026-04-24 03:25 | 57.70527 | -134.63243 | 30170 ft | 434 kts | 146° |
| 2026-04-24 03:25 | 57.68085 | -134.60054 | 30505 ft | 436 kts | 146° |
| 2026-04-24 03:25 | 57.65592 | -134.56810 | 30819 ft | 439 kts | 146° |
| 2026-04-24 03:26 | 57.63070 | -134.53532 | 31130 ft | 441 kts | 146° |
| 2026-04-24 03:26 | 57.60567 | -134.50288 | 31435 ft | 443 kts | 146° |
| 2026-04-24 03:26 | 57.58024 | -134.46995 | 31743 ft | 445 kts | 146° |
| 2026-04-24 03:26 | 57.55507 | -134.43744 | 32024 ft | 447 kts | 146° |
| 2026-04-24 03:27 | 57.52937 | -134.40427 | 32290 ft | 449 kts | 146° |
| 2026-04-24 03:27 | 57.50407 | -134.37170 | 32545 ft | 451 kts | 146° |
| 2026-04-24 03:27 | 57.47810 | -134.33832 | 32809 ft | 453 kts | 147° |
| 2026-04-24 03:27 | 57.45230 | -134.30521 | 33056 ft | 455 kts | 146° |
| 2026-04-24 03:28 | 57.42634 | -134.27193 | 33295 ft | 457 kts | 147° |
| 2026-04-24 03:28 | 57.40013 | -134.23840 | 33534 ft | 458 kts | 146° |
| 2026-04-24 03:28 | 57.37404 | -134.20509 | 33771 ft | 459 kts | 146° |
| 2026-04-24 03:28 | 57.34806 | -134.17200 | 34003 ft | 460 kts | 146° |
| 2026-04-24 03:29 | 57.32143 | -134.13812 | 34226 ft | 462 kts | 146° |
| 2026-04-24 03:29 | 57.29522 | -134.10484 | 34425 ft | 463 kts | 146° |
| 2026-04-24 03:29 | 57.26865 | -134.07117 | 34626 ft | 465 kts | 146° |
| 2026-04-24 03:29 | 57.24226 | -134.03777 | 34831 ft | 466 kts | 146° |
| 2026-04-24 03:30 | 57.21540 | -134.00385 | 35009 ft | 467 kts | 146° |
| 2026-04-24 03:30 | 57.18890 | -133.97043 | 35169 ft | 468 kts | 146° |
| 2026-04-24 03:30 | 57.16208 | -133.93668 | 35327 ft | 469 kts | 146° |
| 2026-04-24 03:30 | 57.13503 | -133.90268 | 35472 ft | 471 kts | 146° |
| 2026-04-24 03:31 | 57.10820 | -133.86899 | 35595 ft | 472 kts | 146° |
| 2026-04-24 03:31 | 57.08126 | -133.83527 | 35747 ft | 473 kts | 146° |
| 2026-04-24 03:31 | 57.05407 | -133.80130 | 35931 ft | 473 kts | 146° |
| 2026-04-24 03:31 | 57.02708 | -133.76761 | 36144 ft | 472 kts | 146° |
| 2026-04-24 03:32 | 57.00013 | -133.73406 | 36351 ft | 471 kts | 146° |
| 2026-04-24 03:32 | 56.97293 | -133.70029 | 36615 ft | 468 kts | 146° |
| 2026-04-24 03:32 | 56.94642 | -133.66739 | 36843 ft | 466 kts | 146° |
| 2026-04-24 03:32 | 56.91969 | -133.63428 | 36953 ft | 467 kts | 146° |
| 2026-04-24 03:33 | 56.89258 | -133.60074 | 37078 ft | 469 kts | 146° |
| 2026-04-24 03:33 | 56.86566 | -133.56755 | 37235 ft | 469 kts | 146° |
| 2026-04-24 03:33 | 56.83881 | -133.53448 | 37374 ft | 470 kts | 146° |
| 2026-04-24 03:34 | 56.78438 | -133.46759 | 37366 ft | 476 kts | 146° |
| 2026-04-24 03:34 | 56.72933 | -133.40018 | 37377 ft | 481 kts | 146° |
| 2026-04-24 03:35 | 56.67393 | -133.33261 | 37391 ft | 485 kts | 146° |
| 2026-04-24 03:35 | 56.61882 | -133.26562 | 37401 ft | 487 kts | 146° |
| 2026-04-24 03:36 | 56.56237 | -133.19727 | 37409 ft | 490 kts | 146° |
| 2026-04-24 03:36 | 56.50565 | -133.12883 | 37403 ft | 492 kts | 146° |
| 2026-04-24 03:37 | 56.44905 | -133.06143 | 37398 ft | 492 kts | 148° |
| 2026-04-24 03:37 | 56.39100 | -132.99693 | 37398 ft | 491 kts | 148° |
| 2026-04-24 03:38 | 56.33262 | -132.93272 | 37403 ft | 491 kts | 148° |
| 2026-04-24 03:38 | 56.27471 | -132.86897 | 37409 ft | 491 kts | 148° |
| 2026-04-24 03:39 | 56.21683 | -132.80530 | 37394 ft | 491 kts | 148° |
| 2026-04-24 03:39 | 56.15885 | -132.74170 | 37387 ft | 490 kts | 148° |
| 2026-04-24 03:40 | 56.10088 | -132.67836 | 37374 ft | 490 kts | 148° |
| 2026-04-24 03:40 | 56.04301 | -132.61533 | 37373 ft | 489 kts | 148° |
| 2026-04-24 03:41 | 55.98494 | -132.55232 | 37374 ft | 490 kts | 148° |
| 2026-04-24 03:41 | 55.92715 | -132.48982 | 37377 ft | 489 kts | 148° |
| 2026-04-24 03:42 | 55.86900 | -132.42719 | 37370 ft | 489 kts | 148° |
| 2026-04-24 03:42 | 55.81083 | -132.36475 | 37362 ft | 489 kts | 148° |
| 2026-04-24 03:43 | 55.75291 | -132.30276 | 37366 ft | 488 kts | 148° |
| 2026-04-24 03:43 | 55.69478 | -132.24081 | 37368 ft | 489 kts | 149° |
| 2026-04-24 03:44 | 55.63680 | -132.17926 | 37362 ft | 488 kts | 148° |
| 2026-04-24 03:44 | 55.57889 | -132.11793 | 37363 ft | 488 kts | 148° |
| 2026-04-24 03:45 | 55.52097 | -132.05682 | 37359 ft | 488 kts | 148° |
| 2026-04-24 03:45 | 55.46279 | -131.99570 | 37364 ft | 488 kts | 148° |
| 2026-04-24 03:46 | 55.40449 | -131.93462 | 37364 ft | 488 kts | 148° |
| 2026-04-24 03:46 | 55.34647 | -131.87404 | 37361 ft | 487 kts | 148° |
| 2026-04-24 03:47 | 55.28853 | -131.81375 | 37363 ft | 488 kts | 148° |
| 2026-04-24 03:47 | 55.23041 | -131.75349 | 37366 ft | 487 kts | 148° |
| 2026-04-24 03:48 | 55.17219 | -131.69338 | 37364 ft | 487 kts | 148° |
| 2026-04-24 03:48 | 55.11389 | -131.63336 | 37365 ft | 487 kts | 148° |
| 2026-04-24 03:49 | 55.05562 | -131.57353 | 37359 ft | 487 kts | 148° |
| 2026-04-24 03:49 | 54.99832 | -131.51199 | 37349 ft | 487 kts | 147° |
| 2026-04-24 03:50 | 54.94133 | -131.45013 | 37333 ft | 486 kts | 147° |
| 2026-04-24 03:50 | 54.88374 | -131.38815 | 37338 ft | 487 kts | 147° |
| 2026-04-24 03:51 | 54.82618 | -131.32658 | 37330 ft | 487 kts | 148° |
| 2026-04-24 03:51 | 54.76876 | -131.26540 | 37329 ft | 487 kts | 148° |
| 2026-04-24 03:52 | 54.71138 | -131.20401 | 37326 ft | 486 kts | 146° |
| 2026-04-24 03:52 | 54.65727 | -131.13592 | 37324 ft | 486 kts | 141° |
| 2026-04-24 03:53 | 54.60216 | -131.06769 | 37322 ft | 487 kts | 147° |
| 2026-04-24 03:53 | 54.54462 | -131.00769 | 37321 ft | 487 kts | 148° |
| 2026-04-24 03:54 | 54.48697 | -130.94794 | 37329 ft | 487 kts | 148° |
| 2026-04-24 03:54 | 54.42915 | -130.88815 | 37330 ft | 487 kts | 148° |
| 2026-04-24 03:55 | 54.37130 | -130.82851 | 37327 ft | 487 kts | 148° |
| 2026-04-24 03:55 | 54.31342 | -130.76906 | 37338 ft | 487 kts | 148° |
| 2026-04-24 03:56 | 54.25557 | -130.70981 | 37333 ft | 487 kts | 148° |
| 2026-04-24 03:56 | 54.19768 | -130.65071 | 37336 ft | 487 kts | 148° |
| 2026-04-24 03:57 | 54.13964 | -130.59164 | 37339 ft | 487 kts | 148° |
| 2026-04-24 03:57 | 54.08149 | -130.53268 | 37335 ft | 487 kts | 148° |
| 2026-04-24 03:58 | 54.02384 | -130.47443 | 37324 ft | 487 kts | 148° |
| 2026-04-24 03:58 | 53.96575 | -130.41592 | 37329 ft | 487 kts | 148° |
| 2026-04-24 03:59 | 53.90741 | -130.35735 | 37331 ft | 487 kts | 148° |
| 2026-04-24 03:59 | 53.84948 | -130.29933 | 37329 ft | 487 kts | 149° |
| 2026-04-24 04:00 | 53.79143 | -130.24142 | 37323 ft | 487 kts | 149° |
| 2026-04-24 04:00 | 53.73310 | -130.18343 | 37322 ft | 487 kts | 149° |
| 2026-04-24 04:01 | 53.67504 | -130.12590 | 37311 ft | 487 kts | 149° |
| 2026-04-24 04:01 | 53.61667 | -130.06822 | 37301 ft | 487 kts | 149° |
| 2026-04-24 04:02 | 53.55839 | -130.01085 | 37308 ft | 487 kts | 149° |
| 2026-04-24 04:02 | 53.50000 | -129.95354 | 37310 ft | 487 kts | 149° |
| 2026-04-24 04:03 | 53.44195 | -129.89674 | 37300 ft | 487 kts | 149° |
| 2026-04-24 04:03 | 53.38372 | -129.83995 | 37286 ft | 487 kts | 149° |
| 2026-04-24 04:04 | 53.32510 | -129.78297 | 37276 ft | 487 kts | 149° |
| 2026-04-24 04:04 | 53.26678 | -129.72647 | 37264 ft | 487 kts | 149° |
| 2026-04-24 04:05 | 53.20834 | -129.67001 | 37261 ft | 488 kts | 149° |
| 2026-04-24 04:05 | 53.14984 | -129.61369 | 37258 ft | 488 kts | 149° |
| 2026-04-24 04:06 | 53.09135 | -129.55757 | 37254 ft | 488 kts | 149° |
| 2026-04-24 04:06 | 53.03279 | -129.50156 | 37250 ft | 489 kts | 149° |
| 2026-04-24 04:07 | 52.97390 | -129.44484 | 37249 ft | 488 kts | 149° |
| 2026-04-24 04:07 | 52.91542 | -129.38853 | 37245 ft | 489 kts | 149° |
| 2026-04-24 04:08 | 52.85685 | -129.33238 | 37245 ft | 489 kts | 149° |
| 2026-04-24 04:08 | 52.79836 | -129.27649 | 37246 ft | 489 kts | 149° |
| 2026-04-24 04:09 | 52.73933 | -129.22029 | 37242 ft | 490 kts | 149° |
| 2026-04-24 04:09 | 52.68074 | -129.16469 | 37242 ft | 490 kts | 149° |
| 2026-04-24 04:10 | 52.62154 | -129.10867 | 37237 ft | 491 kts | 149° |
| 2026-04-24 04:10 | 52.56283 | -129.05328 | 37238 ft | 491 kts | 149° |
| 2026-04-24 04:11 | 52.47394 | -128.96980 | 37234 ft | 491 kts | 149° |
| 2026-04-24 04:11 | 52.41499 | -128.91464 | 37233 ft | 491 kts | 149° |
| 2026-04-24 04:12 | 52.35569 | -128.85930 | 37228 ft | 492 kts | 149° |
| 2026-04-24 04:12 | 52.29652 | -128.80428 | 37227 ft | 492 kts | 149° |
| 2026-04-24 04:13 | 52.23725 | -128.74934 | 37228 ft | 492 kts | 149° |
| 2026-04-24 04:13 | 52.17783 | -128.69434 | 37224 ft | 493 kts | 149° |
| 2026-04-24 04:14 | 52.11845 | -128.63956 | 37219 ft | 493 kts | 149° |
| 2026-04-24 04:14 | 52.05901 | -128.58489 | 37216 ft | 493 kts | 149° |
| 2026-04-24 04:15 | 51.99949 | -128.53033 | 37197 ft | 494 kts | 149° |
| 2026-04-24 04:15 | 51.93991 | -128.47588 | 37193 ft | 495 kts | 149° |
| 2026-04-24 04:16 | 51.88005 | -128.42133 | 37196 ft | 494 kts | 149° |
| 2026-04-24 04:16 | 51.82031 | -128.36706 | 37190 ft | 495 kts | 149° |
| 2026-04-24 04:17 | 51.76030 | -128.31273 | 37197 ft | 495 kts | 150° |
| 2026-04-24 04:17 | 51.70048 | -128.25873 | 37194 ft | 496 kts | 150° |
| 2026-04-24 04:18 | 51.64035 | -128.20462 | 37194 ft | 497 kts | 150° |
| 2026-04-24 04:18 | 51.57996 | -128.15045 | 37188 ft | 497 kts | 150° |
| 2026-04-24 04:19 | 51.51996 | -128.09676 | 37190 ft | 496 kts | 150° |
| 2026-04-24 04:19 | 51.45958 | -128.04292 | 37190 ft | 497 kts | 150° |
| 2026-04-24 04:20 | 51.39958 | -127.98959 | 37190 ft | 497 kts | 150° |
| 2026-04-24 04:20 | 51.33917 | -127.93606 | 37197 ft | 498 kts | 150° |
| 2026-04-24 04:21 | 51.27856 | -127.88247 | 37201 ft | 499 kts | 150° |
| 2026-04-24 04:21 | 51.21829 | -127.82937 | 37202 ft | 499 kts | 150° |
| 2026-04-24 04:22 | 51.15738 | -127.77589 | 37217 ft | 499 kts | 150° |
| 2026-04-24 04:22 | 51.09675 | -127.72282 | 37216 ft | 500 kts | 150° |
| 2026-04-24 04:23 | 51.03610 | -127.66984 | 37207 ft | 500 kts | 150° |
| 2026-04-24 04:23 | 50.97533 | -127.61696 | 37207 ft | 500 kts | 150° |
| 2026-04-24 04:24 | 50.91463 | -127.56429 | 37201 ft | 500 kts | 150° |
| 2026-04-24 04:24 | 50.85388 | -127.51173 | 37204 ft | 500 kts | 150° |
| 2026-04-24 04:25 | 50.79279 | -127.45907 | 37212 ft | 501 kts | 150° |
| 2026-04-24 04:25 | 50.73315 | -127.40346 | 37207 ft | 500 kts | 143° |
| 2026-04-24 04:26 | 50.67905 | -127.33551 | 37209 ft | 498 kts | 135° |
| 2026-04-24 04:26 | 50.63227 | -127.25604 | 37201 ft | 495 kts | 126° |
| 2026-04-24 04:27 | 50.59133 | -127.16944 | 37196 ft | 495 kts | 123° |
| 2026-04-24 04:27 | 50.55084 | -127.08268 | 37189 ft | 495 kts | 123° |
| 2026-04-24 04:28 | 50.51008 | -126.99619 | 37192 ft | 495 kts | 123° |
| 2026-04-24 04:28 | 50.46898 | -126.90955 | 37190 ft | 496 kts | 123° |
| 2026-04-24 04:29 | 50.42794 | -126.82340 | 37178 ft | 496 kts | 123° |
| 2026-04-24 04:29 | 50.38658 | -126.73686 | 37166 ft | 496 kts | 123° |
| 2026-04-24 04:30 | 50.34529 | -126.65079 | 37173 ft | 497 kts | 123° |
| 2026-04-24 04:30 | 50.30391 | -126.56481 | 37165 ft | 497 kts | 123° |
| 2026-04-24 04:31 | 50.26239 | -126.47880 | 37166 ft | 498 kts | 123° |
| 2026-04-24 04:31 | 50.22093 | -126.39321 | 37155 ft | 498 kts | 123° |
| 2026-04-24 04:32 | 50.17901 | -126.30690 | 37159 ft | 498 kts | 124° |
| 2026-04-24 04:32 | 50.13728 | -126.22131 | 37160 ft | 498 kts | 124° |
| 2026-04-24 04:33 | 50.09549 | -126.13586 | 37164 ft | 500 kts | 124° |
| 2026-04-24 04:33 | 50.05342 | -126.05022 | 37165 ft | 498 kts | 123° |
| 2026-04-24 04:34 | 50.01150 | -125.96503 | 37158 ft | 499 kts | 123° |
| 2026-04-24 04:34 | 49.96936 | -125.87970 | 37154 ft | 500 kts | 123° |
| 2026-04-24 04:35 | 49.92704 | -125.79427 | 37155 ft | 501 kts | 123° |
| 2026-04-24 04:35 | 49.88456 | -125.70879 | 37145 ft | 502 kts | 123° |
| 2026-04-24 04:36 | 49.84220 | -125.62389 | 37146 ft | 502 kts | 123° |
| 2026-04-24 04:36 | 49.79947 | -125.53848 | 37145 ft | 503 kts | 123° |
| 2026-04-24 04:37 | 49.75681 | -125.45350 | 37144 ft | 503 kts | 123° |
| 2026-04-24 04:37 | 49.71388 | -125.36825 | 37145 ft | 502 kts | 123° |
| 2026-04-24 04:38 | 49.67100 | -125.28329 | 37140 ft | 504 kts | 124° |
| 2026-04-24 04:38 | 49.62811 | -125.19874 | 37141 ft | 504 kts | 124° |
| 2026-04-24 04:39 | 49.58502 | -125.11400 | 37140 ft | 505 kts | 124° |
| 2026-04-24 04:39 | 49.54142 | -125.02876 | 37144 ft | 506 kts | 124° |
| 2026-04-24 04:40 | 49.49807 | -124.94428 | 37144 ft | 505 kts | 124° |
| 2026-04-24 04:40 | 49.45462 | -124.85985 | 37142 ft | 505 kts | 124° |
| 2026-04-24 04:41 | 49.41092 | -124.77520 | 37150 ft | 506 kts | 124° |
| 2026-04-24 04:41 | 49.36737 | -124.69119 | 37158 ft | 505 kts | 124° |
| 2026-04-24 04:42 | 49.32380 | -124.60730 | 37149 ft | 507 kts | 123° |
| 2026-04-24 04:42 | 49.27996 | -124.52318 | 37134 ft | 508 kts | 124° |
| 2026-04-24 04:43 | 49.23584 | -124.43878 | 37131 ft | 509 kts | 124° |
| 2026-04-24 04:43 | 49.19169 | -124.35464 | 37131 ft | 508 kts | 124° |
| 2026-04-24 04:44 | 49.14771 | -124.27109 | 37129 ft | 509 kts | 124° |
| 2026-04-24 04:44 | 49.10329 | -124.18696 | 37141 ft | 509 kts | 124° |
| 2026-04-24 04:45 | 49.05906 | -124.10346 | 37143 ft | 509 kts | 124° |
| 2026-04-24 04:45 | 49.01426 | -124.01909 | 37151 ft | 510 kts | 124° |
| 2026-04-24 04:46 | 48.96994 | -123.93588 | 37138 ft | 511 kts | 124° |
| 2026-04-24 04:46 | 48.92504 | -123.85192 | 37143 ft | 511 kts | 124° |
| 2026-04-24 04:47 | 48.88033 | -123.76852 | 37145 ft | 512 kts | 124° |
| 2026-04-24 04:47 | 48.83545 | -123.68508 | 37153 ft | 511 kts | 124° |
| 2026-04-24 04:48 | 48.79060 | -123.60197 | 37148 ft | 512 kts | 124° |
| 2026-04-24 04:48 | 48.74234 | -123.52182 | 37135 ft | 515 kts | 132° |
| 2026-04-24 04:49 | 48.68782 | -123.45124 | 37138 ft | 519 kts | 140° |
| 2026-04-24 04:49 | 48.62786 | -123.39111 | 37152 ft | 522 kts | 146° |
| 2026-04-24 04:50 | 48.56576 | -123.33395 | 37152 ft | 522 kts | 147° |
| 2026-04-24 04:50 | 48.50420 | -123.27694 | 37168 ft | 521 kts | 146° |
| 2026-04-24 04:51 | 48.44270 | -123.21981 | 37180 ft | 522 kts | 146° |
| 2026-04-24 04:51 | 48.38100 | -123.16268 | 37184 ft | 522 kts | 146° |
| 2026-04-24 04:52 | 48.32180 | -123.10052 | 37184 ft | 518 kts | 137° |
| 2026-04-24 04:52 | 48.26889 | -123.02762 | 37183 ft | 514 kts | 129° |
| 2026-04-24 04:53 | 48.22028 | -122.94939 | 37181 ft | 513 kts | 128° |
| 2026-04-24 04:53 | 48.17159 | -122.87120 | 37184 ft | 515 kts | 129° |
| 2026-04-24 04:54 | 48.12288 | -122.79372 | 37173 ft | 515 kts | 129° |
| 2026-04-24 04:54 | 48.07353 | -122.71566 | 37176 ft | 515 kts | 129° |
| 2026-04-24 04:55 | 48.02429 | -122.63808 | 37162 ft | 516 kts | 129° |
| 2026-04-24 04:55 | 47.97493 | -122.56052 | 37150 ft | 517 kts | 129° |
| 2026-04-24 04:56 | 47.92558 | -122.48319 | 37164 ft | 518 kts | 129° |
| 2026-04-24 04:56 | 47.87587 | -122.40557 | 37167 ft | 517 kts | 129° |
| 2026-04-24 04:57 | 47.82622 | -122.32821 | 37171 ft | 518 kts | 130° |
| 2026-04-24 04:57 | 47.77634 | -122.25082 | 37173 ft | 519 kts | 130° |
| 2026-04-24 04:58 | 47.72660 | -122.17383 | 37178 ft | 518 kts | 130° |
| 2026-04-24 04:58 | 47.67664 | -122.09673 | 37188 ft | 519 kts | 130° |
| 2026-04-24 04:59 | 47.62690 | -122.02016 | 37165 ft | 519 kts | 130° |
| 2026-04-24 04:59 | 47.57697 | -121.94357 | 37167 ft | 519 kts | 130° |
| 2026-04-24 05:00 | 47.52666 | -121.86657 | 37159 ft | 520 kts | 130° |
| 2026-04-24 05:00 | 47.47667 | -121.79032 | 37145 ft | 520 kts | 130° |
| 2026-04-24 05:01 | 47.42627 | -121.71367 | 37147 ft | 520 kts | 130° |
| 2026-04-24 05:01 | 47.37592 | -121.63731 | 37108 ft | 521 kts | 130° |
| 2026-04-24 05:02 | 47.32554 | -121.56112 | 37116 ft | 522 kts | 130° |
| 2026-04-24 05:02 | 47.27502 | -121.48497 | 37096 ft | 522 kts | 131° |
| 2026-04-24 05:03 | 47.22417 | -121.40852 | 37095 ft | 523 kts | 130° |
| 2026-04-24 05:03 | 47.17348 | -121.33250 | 37107 ft | 523 kts | 131° |
| 2026-04-24 05:04 | 47.12252 | -121.25623 | 37233 ft | 521 kts | 131° |
| 2026-04-24 05:04 | 47.09761 | -121.21912 | 37655 ft | 512 kts | 131° |
| 2026-04-24 05:04 | 47.07291 | -121.18232 | 38055 ft | 505 kts | 131° |
| 2026-04-24 05:05 | 47.04845 | -121.14596 | 38214 ft | 503 kts | 131° |
| 2026-04-24 05:05 | 47.02369 | -121.10917 | 38313 ft | 502 kts | 132° |
| 2026-04-24 05:05 | 46.99957 | -121.07336 | 38441 ft | 502 kts | 132° |
| 2026-04-24 05:05 | 46.97506 | -121.03706 | 38512 ft | 502 kts | 131° |
| 2026-04-24 05:06 | 46.92597 | -120.96454 | 38635 ft | 502 kts | 131° |
| 2026-04-24 05:06 | 46.90148 | -120.92844 | 38766 ft | 502 kts | 132° |
| 2026-04-24 05:06 | 46.87713 | -120.89257 | 38868 ft | 502 kts | 132° |
| 2026-04-24 05:07 | 46.82781 | -120.82004 | 39026 ft | 501 kts | 132° |
| 2026-04-24 05:07 | 46.77894 | -120.74847 | 39107 ft | 502 kts | 132° |
| 2026-04-24 05:08 | 46.72957 | -120.67630 | 39094 ft | 505 kts | 133° |
| 2026-04-24 05:08 | 46.67989 | -120.60390 | 39113 ft | 507 kts | 132° |
| 2026-04-24 05:09 | 46.63009 | -120.53150 | 39137 ft | 510 kts | 133° |
| 2026-04-24 05:09 | 46.57986 | -120.45871 | 39133 ft | 512 kts | 133° |
| 2026-04-24 05:10 | 46.52896 | -120.38702 | 39116 ft | 515 kts | 134° |
| 2026-04-24 05:10 | 46.47682 | -120.31571 | 39127 ft | 516 kts | 135° |
| 2026-04-24 05:11 | 46.42461 | -120.24431 | 39096 ft | 517 kts | 135° |
| 2026-04-24 05:11 | 46.37245 | -120.17295 | 39106 ft | 518 kts | 135° |
| 2026-04-24 05:12 | 46.32033 | -120.10186 | 39121 ft | 518 kts | 135° |
| 2026-04-24 05:12 | 46.26814 | -120.03076 | 39096 ft | 519 kts | 135° |
| 2026-04-24 05:13 | 46.18953 | -119.92410 | 39100 ft | 518 kts | 136° |
| 2026-04-24 05:14 | 46.13716 | -119.85327 | 39110 ft | 518 kts | 136° |
| 2026-04-24 05:14 | 46.08479 | -119.78265 | 39081 ft | 516 kts | 136° |
| 2026-04-24 05:15 | 46.03249 | -119.71232 | 39097 ft | 517 kts | 136° |
| 2026-04-24 05:15 | 45.98004 | -119.64201 | 39105 ft | 516 kts | 136° |
| 2026-04-24 05:16 | 45.92765 | -119.57193 | 39092 ft | 517 kts | 136° |
| 2026-04-24 05:16 | 45.87518 | -119.50192 | 39107 ft | 517 kts | 136° |
| 2026-04-24 05:17 | 45.82241 | -119.43173 | 39089 ft | 517 kts | 136° |
| 2026-04-24 05:17 | 45.77015 | -119.36237 | 39097 ft | 516 kts | 136° |
| 2026-04-24 05:18 | 45.71742 | -119.29257 | 39071 ft | 516 kts | 137° |
| 2026-04-24 05:18 | 45.66488 | -119.22324 | 39083 ft | 515 kts | 137° |
| 2026-04-24 05:19 | 45.61245 | -119.15427 | 39076 ft | 515 kts | 137° |
| 2026-04-24 05:19 | 45.55970 | -119.08500 | 39045 ft | 515 kts | 137° |
| 2026-04-24 05:20 | 45.50737 | -119.01653 | 39079 ft | 514 kts | 137° |
| 2026-04-24 05:20 | 45.45451 | -118.94750 | 39071 ft | 515 kts | 137° |
| 2026-04-24 05:21 | 45.40189 | -118.87899 | 39074 ft | 515 kts | 137° |
| 2026-04-24 05:21 | 45.34912 | -118.81040 | 39069 ft | 515 kts | 137° |
| 2026-04-24 05:22 | 45.29666 | -118.74247 | 39063 ft | 514 kts | 137° |
| 2026-04-24 05:22 | 45.24395 | -118.67439 | 39042 ft | 514 kts | 138° |
| 2026-04-24 05:23 | 45.19112 | -118.60627 | 39050 ft | 514 kts | 138° |
| 2026-04-24 05:23 | 45.13833 | -118.53839 | 39054 ft | 514 kts | 138° |
| 2026-04-24 05:24 | 45.08537 | -118.47053 | 39053 ft | 516 kts | 138° |
| 2026-04-24 05:24 | 45.03256 | -118.40298 | 39038 ft | 516 kts | 138° |
| 2026-04-24 05:25 | 44.98214 | -118.33015 | 39017 ft | 517 kts | 131° |
| 2026-04-24 05:25 | 44.93792 | -118.25075 | 39017 ft | 518 kts | 127° |
| 2026-04-24 05:26 | 44.89500 | -118.17042 | 39003 ft | 517 kts | 127° |
| 2026-04-24 05:26 | 44.85154 | -118.08951 | 39007 ft | 518 kts | 127° |
| 2026-04-24 05:27 | 44.80799 | -118.00895 | 39016 ft | 519 kts | 127° |
| 2026-04-24 05:27 | 44.76426 | -117.92838 | 38993 ft | 519 kts | 127° |
| 2026-04-24 05:28 | 44.72051 | -117.84792 | 38993 ft | 520 kts | 128° |
| 2026-04-24 05:28 | 44.67679 | -117.76786 | 39017 ft | 520 kts | 127° |
| 2026-04-24 05:29 | 44.63293 | -117.68771 | 39011 ft | 521 kts | 127° |
| 2026-04-24 05:29 | 44.58875 | -117.60720 | 39011 ft | 521 kts | 127° |
| 2026-04-24 05:30 | 44.54450 | -117.52680 | 39006 ft | 521 kts | 127° |
| 2026-04-24 05:30 | 44.50050 | -117.44698 | 39019 ft | 521 kts | 127° |
| 2026-04-24 05:31 | 44.45609 | -117.36679 | 39031 ft | 522 kts | 127° |
| 2026-04-24 05:31 | 44.41198 | -117.28721 | 39010 ft | 522 kts | 128° |
| 2026-04-24 05:32 | 44.36758 | -117.20745 | 39006 ft | 522 kts | 127° |
| 2026-04-24 05:32 | 44.32579 | -117.12444 | 39012 ft | 522 kts | 124° |
| 2026-04-24 05:33 | 44.28547 | -117.04138 | 39009 ft | 522 kts | 124° |
| 2026-04-24 05:33 | 44.24456 | -116.95753 | 39022 ft | 523 kts | 124° |
| 2026-04-24 05:34 | 44.18333 | -116.83270 | 39009 ft | 519 kts | 124° |
| 2026-04-24 05:34 | 44.14290 | -116.75060 | 39007 ft | 517 kts | 124° |
| 2026-04-24 05:35 | 44.10238 | -116.66849 | 38985 ft | 517 kts | 124° |
| 2026-04-24 05:35 | 44.06153 | -116.58603 | 38999 ft | 516 kts | 124° |
| 2026-04-24 05:36 | 44.02098 | -116.50440 | 39001 ft | 516 kts | 124° |
| 2026-04-24 05:36 | 43.98043 | -116.42297 | 38997 ft | 516 kts | 124° |
| 2026-04-24 05:37 | 43.93980 | -116.34160 | 38985 ft | 515 kts | 125° |
| 2026-04-24 05:37 | 43.89892 | -116.25993 | 38991 ft | 516 kts | 125° |
| 2026-04-24 05:38 | 43.85821 | -116.17890 | 39022 ft | 515 kts | 125° |
| 2026-04-24 05:38 | 43.81728 | -116.09760 | 38997 ft | 515 kts | 125° |
| 2026-04-24 05:39 | 43.77638 | -116.01663 | 39004 ft | 515 kts | 125° |
| 2026-04-24 05:39 | 43.73554 | -115.93595 | 39011 ft | 515 kts | 125° |
| 2026-04-24 05:40 | 43.69467 | -115.85541 | 38993 ft | 514 kts | 125° |
| 2026-04-24 05:40 | 43.65346 | -115.77451 | 38998 ft | 514 kts | 125° |
| 2026-04-24 05:41 | 43.61170 | -115.69504 | 38999 ft | 513 kts | 127° |
| 2026-04-24 05:41 | 43.56865 | -115.61694 | 39039 ft | 513 kts | 128° |
| 2026-04-24 05:42 | 43.52575 | -115.53925 | 39017 ft | 514 kts | 127° |
| 2026-04-24 05:42 | 43.48275 | -115.46123 | 38992 ft | 513 kts | 127° |
| 2026-04-24 05:43 | 43.43956 | -115.38294 | 39010 ft | 514 kts | 127° |
| 2026-04-24 05:43 | 43.39644 | -115.30489 | 38997 ft | 514 kts | 128° |
| 2026-04-24 05:44 | 43.35353 | -115.22752 | 38990 ft | 514 kts | 128° |
| 2026-04-24 05:44 | 43.31024 | -115.14960 | 38988 ft | 514 kts | 128° |
| 2026-04-24 05:45 | 43.26685 | -115.07179 | 39004 ft | 514 kts | 128° |
| 2026-04-24 05:45 | 43.22342 | -114.99403 | 38988 ft | 513 kts | 128° |
| 2026-04-24 05:46 | 43.18029 | -114.91703 | 38981 ft | 514 kts | 128° |
| 2026-04-24 05:46 | 43.13673 | -114.83951 | 38979 ft | 515 kts | 128° |
| 2026-04-24 05:47 | 43.09321 | -114.76219 | 38980 ft | 514 kts | 128° |
| 2026-04-24 05:47 | 43.04955 | -114.68485 | 38981 ft | 515 kts | 128° |
| 2026-04-24 05:48 | 43.00604 | -114.60802 | 38961 ft | 515 kts | 128° |
| 2026-04-24 05:48 | 42.96222 | -114.53077 | 38953 ft | 515 kts | 128° |
| 2026-04-24 05:49 | 42.91853 | -114.45401 | 38948 ft | 516 kts | 128° |
| 2026-04-24 05:49 | 42.87448 | -114.37681 | 38937 ft | 516 kts | 128° |
| 2026-04-24 05:50 | 42.83056 | -114.30000 | 38952 ft | 515 kts | 129° |
| 2026-04-24 05:50 | 42.78672 | -114.22351 | 38942 ft | 514 kts | 129° |
| 2026-04-24 05:51 | 42.74284 | -114.14719 | 38963 ft | 515 kts | 129° |
| 2026-04-24 05:51 | 42.69893 | -114.07104 | 38956 ft | 515 kts | 129° |
| 2026-04-24 05:52 | 42.65460 | -113.99432 | 38969 ft | 514 kts | 129° |
| 2026-04-24 05:52 | 42.61067 | -113.91845 | 38956 ft | 513 kts | 129° |
| 2026-04-24 05:53 | 42.56470 | -113.84523 | 38970 ft | 511 kts | 136° |
| 2026-04-24 05:53 | 42.51454 | -113.77746 | 38954 ft | 511 kts | 137° |
| 2026-04-24 05:54 | 42.46375 | -113.70978 | 38979 ft | 511 kts | 137° |
| 2026-04-24 05:54 | 42.41349 | -113.64271 | 38964 ft | 510 kts | 137° |
| 2026-04-24 05:55 | 42.36303 | -113.57546 | 38970 ft | 511 kts | 137° |
| 2026-04-24 05:55 | 42.31251 | -113.50824 | 38972 ft | 510 kts | 137° |
| 2026-04-24 05:56 | 42.28742 | -113.47488 | 38803 ft | 510 kts | 138° |
| 2026-04-24 05:56 | 42.26211 | -113.44134 | 38488 ft | 507 kts | 138° |
| 2026-04-24 05:56 | 42.23718 | -113.40829 | 38087 ft | 502 kts | 138° |
| 2026-04-24 05:56 | 42.21235 | -113.37548 | 37525 ft | 502 kts | 138° |
| 2026-04-24 05:57 | 42.18766 | -113.34290 | 36897 ft | 503 kts | 139° |
| 2026-04-24 05:57 | 42.16279 | -113.31014 | 36313 ft | 503 kts | 139° |
| 2026-04-24 05:57 | 42.13772 | -113.27709 | 35809 ft | 502 kts | 139° |
| 2026-04-24 05:57 | 42.11303 | -113.24461 | 35451 ft | 501 kts | 139° |
| 2026-04-24 05:58 | 42.08816 | -113.21188 | 35026 ft | 500 kts | 139° |
| 2026-04-24 05:58 | 42.06335 | -113.17930 | 34511 ft | 499 kts | 139° |
| 2026-04-24 05:58 | 42.03889 | -113.14722 | 33792 ft | 499 kts | 139° |
| 2026-04-24 05:58 | 42.01397 | -113.11456 | 32985 ft | 501 kts | 138° |
| 2026-04-24 05:59 | 41.98890 | -113.08175 | 32105 ft | 503 kts | 138° |
| 2026-04-24 05:59 | 41.96414 | -113.04939 | 30946 ft | 502 kts | 138° |
| 2026-04-24 05:59 | 41.93932 | -113.01698 | 29180 ft | 509 kts | 138° |
| 2026-04-24 05:59 | 41.91396 | -112.98389 | 27209 ft | 517 kts | 138° |
| 2026-04-24 06:00 | 41.88818 | -112.95029 | 25224 ft | 521 kts | 139° |
| 2026-04-24 06:00 | 41.86282 | -112.91726 | 24099 ft | 507 kts | 139° |
| 2026-04-24 06:00 | 41.83801 | -112.88492 | 23760 ft | 496 kts | 139° |
| 2026-04-24 06:00 | 41.81314 | -112.85263 | 23388 ft | 491 kts | 139° |
| 2026-04-24 06:01 | 41.78902 | -112.82134 | 22974 ft | 488 kts | 139° |
| 2026-04-24 06:01 | 41.76467 | -112.78980 | 22463 ft | 485 kts | 139° |
| 2026-04-24 06:01 | 41.74057 | -112.75861 | 21908 ft | 480 kts | 139° |
| 2026-04-24 06:01 | 41.71681 | -112.72787 | 21362 ft | 476 kts | 139° |
| 2026-04-24 06:02 | 41.69318 | -112.69737 | 20808 ft | 471 kts | 139° |
| 2026-04-24 06:02 | 41.66984 | -112.66732 | 20271 ft | 467 kts | 139° |
| 2026-04-24 06:02 | 41.64639 | -112.63699 | 19720 ft | 463 kts | 138° |
| 2026-04-24 06:02 | 41.62397 | -112.60722 | 19166 ft | 459 kts | 137° |
| 2026-04-24 06:03 | 41.60163 | -112.57725 | 18629 ft | 455 kts | 137° |
| 2026-04-24 06:03 | 41.57938 | -112.54739 | 18096 ft | 451 kts | 137° |
| 2026-04-24 06:03 | 41.55730 | -112.51779 | 17551 ft | 447 kts | 137° |
| 2026-04-24 06:03 | 41.53567 | -112.48891 | 17019 ft | 444 kts | 137° |
| 2026-04-24 06:04 | 41.51374 | -112.45968 | 16462 ft | 440 kts | 137° |
| 2026-04-24 06:04 | 41.49247 | -112.43139 | 15916 ft | 436 kts | 137° |
| 2026-04-24 06:04 | 41.47103 | -112.40291 | 15368 ft | 432 kts | 137° |
| 2026-04-24 06:04 | 41.44990 | -112.37485 | 14839 ft | 428 kts | 137° |
| 2026-04-24 06:05 | 41.42910 | -112.34722 | 14310 ft | 423 kts | 138° |
| 2026-04-24 06:05 | 41.40837 | -112.31973 | 13765 ft | 419 kts | 137° |
| 2026-04-24 06:05 | 41.38779 | -112.29249 | 13232 ft | 415 kts | 137° |
| 2026-04-24 06:05 | 41.36733 | -112.26541 | 12687 ft | 411 kts | 137° |
| 2026-04-24 06:06 | 41.34735 | -112.23901 | 12235 ft | 404 kts | 137° |
| 2026-04-24 06:06 | 41.32765 | -112.21298 | 11955 ft | 392 kts | 137° |
| 2026-04-24 06:06 | 41.30867 | -112.18789 | 11767 ft | 379 kts | 138° |
| 2026-04-24 06:06 | 41.29038 | -112.16373 | 11575 ft | 367 kts | 137° |
| 2026-04-24 06:07 | 41.27250 | -112.14020 | 11335 ft | 357 kts | 137° |
| 2026-04-24 06:07 | 41.25514 | -112.11737 | 11182 ft | 344 kts | 137° |
| 2026-04-24 06:07 | 41.23848 | -112.09546 | 11062 ft | 329 kts | 137° |
| 2026-04-24 06:07 | 41.22268 | -112.07471 | 11002 ft | 309 kts | 139° |
| 2026-04-24 06:08 | 41.20639 | -112.05681 | 10997 ft | 298 kts | 148° |
| 2026-04-24 06:08 | 41.18927 | -112.04332 | 10994 ft | 280 kts | 158° |
| 2026-04-24 06:08 | 41.17166 | -112.03326 | 10994 ft | 267 kts | 161° |
| 2026-04-24 06:08 | 41.15458 | -112.02347 | 10999 ft | 272 kts | 161° |
| 2026-04-24 06:09 | 41.13655 | -112.01595 | 10976 ft | 269 kts | 175° |
| 2026-04-24 06:09 | 41.11800 | -112.01281 | 10697 ft | 266 kts | 179° |
| 2026-04-24 06:09 | 41.09946 | -112.01059 | 10380 ft | 262 kts | 179° |
| 2026-04-24 06:09 | 41.08156 | -112.00857 | 9962 ft | 257 kts | 179° |
| 2026-04-24 06:10 | 41.06391 | -112.00658 | 9515 ft | 252 kts | 179° |
| 2026-04-24 06:10 | 41.04672 | -112.00462 | 9073 ft | 247 kts | 179° |
| 2026-04-24 06:10 | 41.02969 | -112.00267 | 8630 ft | 242 kts | 178° |
| 2026-04-24 06:11 | 40.99685 | -111.99887 | 7820 ft | 226 kts | 177° |
| 2026-04-24 06:11 | 40.98154 | -111.99710 | 7533 ft | 222 kts | 177° |
| 2026-04-24 06:11 | 40.96634 | -111.99534 | 7339 ft | 209 kts | 177° |
| 2026-04-24 06:11 | 40.95232 | -111.99371 | 7044 ft | 198 kts | 177° |
| 2026-04-24 06:12 | 40.93894 | -111.99216 | 6759 ft | 189 kts | 177° |
| 2026-04-24 06:12 | 40.92610 | -111.99067 | 6489 ft | 180 kts | 177° |
| 2026-04-24 06:12 | 40.91398 | -111.98927 | 6264 ft | 168 kts | 177° |
| 2026-04-24 06:12 | 40.90282 | -111.98797 | 6038 ft | 155 kts | 177° |
| 2026-04-24 06:13 | 40.89231 | -111.98676 | 5838 ft | 150 kts | 176° |
| 2026-04-24 06:13 | 40.88200 | -111.98558 | 5662 ft | 149 kts | 176° |
| 2026-04-24 06:13 | 40.87172 | -111.98440 | 5480 ft | 148 kts | 175° |
| 2026-04-24 06:13 | 40.86142 | -111.98320 | 5292 ft | 146 kts | 175° |
| 2026-04-24 06:14 | 40.85139 | -111.98204 | 5102 ft | 145 kts | 174° |
| 2026-04-24 06:14 | 40.84134 | -111.98087 | 4909 ft | 144 kts | 174° |
| 2026-04-24 06:14 | 40.83129 | -111.97971 | 4715 ft | 143 kts | 174° |
| 2026-04-24 06:14 | 40.82142 | -111.97857 | 4526 ft | 142 kts | 173° |
| 2026-04-24 06:15 | 40.81171 | -111.97745 | 4342 ft | 141 kts | 173° |
| 2026-04-24 06:15 | 40.80207 | -111.97630 | 4234 ft | 127 kts | 174° |
| 2026-04-24 06:15 | 40.79494 | -111.97545 | 4226 ft | 78 kts | 175° |
| 2026-04-24 06:15 | 40.79096 | -111.97499 | 4226 ft | 46 kts | 175° |
| 2026-04-24 06:16 | 40.78807 | -111.97466 | 4226 ft | 34 kts | 175° |
| 2026-04-24 06:16 | 40.78668 | -111.97472 | 4226 ft | 16 kts | 188° |
| 2026-04-24 06:16 | 40.78569 | -111.97507 | 4226 ft | 13 kts | 200° |
| 2026-04-24 06:16 | 40.78497 | -111.97549 | 4227 ft | 9 kts | 214° |
| 2026-04-24 06:17 | 40.78451 | -111.97651 | 4229 ft | 16 kts | 264° |
| 2026-04-24 06:17 | 40.78511 | -111.97751 | 4229 ft | 16 kts | 347° |
| 2026-04-24 06:17 | 40.78629 | -111.97767 | 4227 ft | 17 kts | 356° |
| 2026-04-24 06:17 | 40.78742 | -111.97809 | 4226 ft | 17 kts | 294° |
| 2026-04-24 06:18 | 40.78733 | -111.97959 | 4227 ft | 16 kts | 259° |
| 2026-04-24 06:18 | 40.78672 | -111.98042 | 4228 ft | 12 kts | 172° |
| 2026-04-24 06:18 | 40.78650 | -111.98038 | 4228 ft | 0 kts | 174° |